Pagrindinis puslapis
METAR-TAF:

METAR-TAF

Oro uostai :

Bullhead City, Arizona, Jungtinės Amerikos Valstijos

platuma: 35-09-27N, ilguma: 114-33-34W, Aukštis: 212 m

Dabartinis oras

Ataskaita buvo paskelbta 33 minutes, ne 05:55 UTC
Ramus vėjas
Temperatūra 30°C
Drėgmė 8%
Slėgis 1004 hPa
Matomumas: 16.1 km
Giedras dangus

METAR: KIFP 190555Z AUTO 00000KT 10SM CLR 30/M08 A2964 RMK AO2

Laikas: 23:28 (06:28 UTC)

Prognozė

Ataskaita buvo paskelbta 1 valandą ir 8 minutes, ne 05:20 UTC
Prognozė galioja nuo 19 metu 06 UTC su 20 metu 06 UTC
Vėjas 6 kt iš Šiaurės
Matomumas: 10 km
Išsisklaidę debesys ne aukštis 20000 ft
Nuo 19 metu 0900 UTC
Vėjas 5 kt nuo kintamojo kryptimis
Matomumas: 10 km
Giedras dangus
Nuo 19 metu 1900 UTC
Vėjas 10 kt iš Pietų su gūsio iki 18 kt
Matomumas: 10 km
Giedras dangus
Nuo 20 metu 0300 UTC
Vėjas 7 kt iš Pietų/Pietryčių
Matomumas: 10 km
Giedras dangus

TAF: KIFP 190520Z 1906/2006 01006KT P6SM SCT200 FM190900 VRB05KT P6SM SKC FM191900 19010G18KT P6SM SKC FM200300 16007KT P6SM SKC

Orai ataskaitas ir orų prognozės (METAR, TAF).

turimą stotys yra geltonos ir raudonos taškus žemėlapyje.

Perkelti pele per norėdami pamatyti stoties vardą.

Tada spustelėkite, norėdami matyti oro stebėjimo ir prognozės.

Norėdami pakeisti žemėlapį: spustelėkite ant žalios mygtukų su juodo kryžiaus žemyn,; žalią mygtuką su brūkšneliu, jei norite nutolinti; arba žalių rodyklių gretimoms žemėlapius.


METAR-TAF: